Terminal Aerodrome Forecast
Issued by NWS

Home | Current Version | Previous Version | Text Only | Print | Product List | Glossary On
Versions: 1 2 3 4 5 6 7 8 9 10 11 12 13 14 15 16 17 18 19 20 21 22 23 24 25 26 27 28 29
000
FTUS45 KSLC 060539
TAF36U
TAF
K36U 060539Z 0606/0706 VRB04KT P6SM BKN100 BKN140
     FM061700 12009KT P6SM BKN100 BKN150
     FM062200 05010G16KT P6SM BKN100 BKN150
     FM070100 03008KT P6SM SCT100 BKN150=

USA.gov is the U.S. government's official web portal to all federal, state and local government web resources and services.